Time;durP1;ratioP1;P1;durP2;ratioP2;P2;SDS_P1;SDS_P2;PMS_P1;PMS_P2;Temp;Humidity;BMP_temperature;BMP_pressure;BME280_temperature;BME280_humidity;BME280_pressure;Samples;Min_cycle;Max_cycle;Signal;HPM_P1;HPM_P2
2023/08/29 00:01:48;;;;;;;3.85;2.67;;;;;;;;;;5019234;28;88818;-38
2023/08/29 00:04:14;;;;;;;2.67;2.33;;;;;;;;;;5017494;28;92352;-36
2023/08/29 00:06:40;;;;;;;5.20;3.08;;;;;;;;;;5017754;28;90015;-38
2023/08/29 00:09:06;;;;;;;2.60;2.30;;;;;;;;;;5017644;28;90060;-35
2023/08/29 00:11:33;;;;;;;4.82;3.15;;;;;;;;;;5018207;28;89499;-34
2023/08/29 00:13:59;;;;;;;3.25;2.78;;;;;;;;;;5017913;28;89047;-34
2023/08/29 00:16:25;;;;;;;2.97;2.75;;;;;;;;;;5018976;28;89088;-36
2023/08/29 00:18:51;;;;;;;3.42;2.65;;;;;;;;;;5017500;28;89951;-39
2023/08/29 00:21:17;;;;;;;5.65;3.88;;;;;;;;;;5018585;28;89822;-37
2023/08/29 00:23:43;;;;;;;3.03;2.75;;;;;;;;;;5017961;27;89376;-36
2023/08/29 00:26:09;;;;;;;4.05;2.95;;;;;;;;;;5017802;28;89879;-36
2023/08/29 00:28:35;;;;;;;3.17;2.40;;;;;;;;;;5017079;28;89502;-33
2023/08/29 00:31:01;;;;;;;4.25;3.60;;;;;;;;;;5017052;28;89046;-36
2023/08/29 00:33:27;;;;;;;3.20;2.80;;;;;;;;;;5017682;28;90267;-34
2023/08/29 00:35:53;;;;;;;3.97;2.90;;;;;;;;;;5018235;28;89282;-37
2023/08/29 00:38:19;;;;;;;4.55;2.95;;;;;;;;;;5017666;28;90210;-34
2023/08/29 00:40:45;;;;;;;7.55;3.38;;;;;;;;;;5018036;28;88306;-35
2023/08/29 00:43:11;;;;;;;3.72;3.00;;;;;;;;;;5016232;28;90209;-34
2023/08/29 00:45:38;;;;;;;5.03;3.95;;;;;;;;;;5020529;27;89288;-41
2023/08/29 00:48:04;;;;;;;3.78;3.20;;;;;;;;;;5021276;28;89237;-38
2023/08/29 00:50:31;;;;;;;3.13;2.83;;;;;;;;;;5021237;28;89333;-36
2023/08/29 00:52:59;;;;;;;3.50;2.67;;;;;;;;;;5021055;28;90567;-39
2023/08/29 00:55:26;;;;;;;4.00;2.50;;;;;;;;;;5021079;28;90848;-40
2023/08/29 00:57:56;;;;;;;5.78;3.50;;;;;;;;;;5021662;28;89207;-33
2023/08/29 01:00:26;;;;;;;4.57;3.30;;;;;;;;;;5014828;28;88616;-37
2023/08/29 01:02:52;;;;;;;3.35;2.75;;;;;;;;;;5021455;28;89854;-33
2023/08/29 01:05:18;;;;;;;4.43;3.45;;;;;;;;;;5020620;28;89509;-38
2023/08/29 01:07:44;;;;;;;3.58;3.28;;;;;;;;;;5021659;28;89355;-37
2023/08/29 01:10:10;;;;;;;5.45;3.22;;;;;;;;;;5021100;28;89134;-34
2023/08/29 01:12:45;;;;;;;4.50;3.90;;;;;;;;;;5020131;28;88975;-33
2023/08/29 01:15:16;;;;;;;4.05;3.65;;;;;;;;;;5020437;28;89795;-33
2023/08/29 01:17:45;;;;;;;3.53;2.92;;;;;;;;;;5021488;28;89176;-34
2023/08/29 01:20:11;;;;;;;3.92;3.53;;;;;;;;;;5020843;28;90551;-37
2023/08/29 01:22:52;;;;;;;3.92;3.33;;;;;;;;;;5020936;28;89989;-34
2023/08/29 01:25:20;;;;;;;3.47;3.17;;;;;;;;;;5020078;28;89482;-35
2023/08/29 01:27:47;;;;;;;4.45;3.42;;;;;;;;;;5020607;28;90267;-33
2023/08/29 01:30:13;;;;;;;4.20;3.80;;;;;;;;;;5020196;28;90403;-34
2023/08/29 01:32:40;;;;;;;5.28;3.13;;;;;;;;;;5020670;28;90066;-33
2023/08/29 01:35:06;;;;;;;5.38;3.50;;;;;;;;;;5020675;28;89988;-35
2023/08/29 01:37:32;;;;;;;6.10;3.47;;;;;;;;;;5020666;28;89876;-34
2023/08/29 01:39:58;;;;;;;3.10;2.80;;;;;;;;;;5021148;28;88669;-36
2023/08/29 01:42:24;;;;;;;3.75;3.00;;;;;;;;;;5021015;28;90471;-34
2023/08/29 01:44:50;;;;;;;5.28;3.30;;;;;;;;;;5019568;28;90568;-41
2023/08/29 01:47:16;;;;;;;8.40;3.65;;;;;;;;;;5020887;28;90345;-32
2023/08/29 01:49:43;;;;;;;5.00;3.65;;;;;;;;;;5019862;28;88852;-37
2023/08/29 01:52:09;;;;;;;3.47;2.88;;;;;;;;;;5015482;28;89652;-40
2023/08/29 01:54:35;;;;;;;4.60;3.08;;;;;;;;;;5021086;28;89852;-33
2023/08/29 01:57:02;;;;;;;3.53;3.10;;;;;;;;;;5018920;28;89592;-37
2023/08/29 01:59:29;;;;;;;3.33;2.97;;;;;;;;;;5020831;28;89073;-33
2023/08/29 02:01:55;;;;;;;3.97;3.45;;;;;;;;;;5021212;28;90055;-35
2023/08/29 02:04:21;;;;;;;3.70;3.03;;;;;;;;;;5019445;28;89988;-33
2023/08/29 02:06:47;;;;;;;3.47;2.42;;;;;;;;;;5020616;28;89684;-36
2023/08/29 02:09:13;;;;;;;4.90;2.95;;;;;;;;;;5019613;28;89209;-33
2023/08/29 02:11:39;;;;;;;3.40;3.10;;;;;;;;;;5019845;28;90209;-40
2023/08/29 02:14:05;;;;;;;5.35;3.33;;;;;;;;;;5019980;28;89958;-34
2023/08/29 02:16:31;;;;;;;5.72;3.47;;;;;;;;;;5019932;28;90280;-36
2023/08/29 02:18:57;;;;;;;4.10;3.50;;;;;;;;;;5019504;28;89136;-39
2023/08/29 02:21:23;;;;;;;5.47;3.28;;;;;;;;;;5020033;28;90767;-36
2023/08/29 02:23:49;;;;;;;4.70;3.22;;;;;;;;;;5019789;28;89016;-33
2023/08/29 02:26:15;;;;;;;7.68;3.42;;;;;;;;;;5020493;28;89683;-34
2023/08/29 02:28:41;;;;;;;6.07;3.35;;;;;;;;;;5019378;28;89321;-37
2023/08/29 02:31:08;;;;;;;2.90;2.63;;;;;;;;;;5019337;28;90309;-37
2023/08/29 02:33:35;;;;;;;3.65;3.35;;;;;;;;;;5018961;28;90783;-35
2023/08/29 02:36:04;;;;;;;3.97;2.90;;;;;;;;;;5019356;28;90004;-37
2023/08/29 02:38:30;;;;;;;;;;;;;;;;;;5019695;28;89790;-36
2023/08/29 02:40:56;;;;;;;4.05;2.88;;;;;;;;;;5020889;28;90234;-35
2023/08/29 02:43:22;;;;;;;3.40;3.10;;;;;;;;;;5019772;28;89555;-36
2023/08/29 02:45:50;;;;;;;3.75;3.45;;;;;;;;;;5019137;28;89692;-33
2023/08/29 02:48:16;;;;;;;4.28;2.80;;;;;;;;;;5019549;28;88561;-36
2023/08/29 02:50:44;;;;;;;4.43;2.97;;;;;;;;;;5014527;28;90942;-38
2023/08/29 02:53:10;;;;;;;5.97;3.13;;;;;;;;;;5019171;28;89488;-35
2023/08/29 02:55:36;;;;;;;4.15;2.70;;;;;;;;;;5018762;28;89238;-38
2023/08/29 02:58:02;;;;;;;3.00;2.70;;;;;;;;;;5019166;28;88604;-38
2023/08/29 03:00:28;;;;;;;4.65;3.33;;;;;;;;;;5018594;28;90622;-34
2023/08/29 03:02:54;;;;;;;3.17;2.70;;;;;;;;;;5019862;28;89409;-41
2023/08/29 03:05:21;;;;;;;3.03;2.72;;;;;;;;;;5019490;28;89960;-34
2023/08/29 03:07:47;;;;;;;2.33;1.95;;;;;;;;;;5018148;27;88710;-37
2023/08/29 03:10:13;;;;;;;3.67;2.70;;;;;;;;;;5018654;28;90426;-33
2023/08/29 03:12:39;;;;;;;2.80;2.53;;;;;;;;;;5019141;28;90583;-36
2023/08/29 03:15:05;;;;;;;3.35;2.50;;;;;;;;;;5018907;28;89937;-34
2023/08/29 03:17:31;;;;;;;3.85;2.90;;;;;;;;;;5019038;28;90638;-34
2023/08/29 03:19:57;;;;;;;3.67;2.95;;;;;;;;;;5017994;28;89723;-33
2023/08/29 03:22:23;;;;;;;3.10;2.80;;;;;;;;;;5018690;28;90520;-35
2023/08/29 03:24:49;;;;;;;6.65;2.85;;;;;;;;;;5019008;28;90293;-34
2023/08/29 03:27:15;;;;;;;5.65;3.05;;;;;;;;;;5019240;28;89189;-33
2023/08/29 03:29:41;;;;;;;3.03;2.20;;;;;;;;;;5018587;28;90392;-37
2023/08/29 03:32:07;;;;;;;3.78;3.40;;;;;;;;;;5019021;28;89729;-37
2023/08/29 03:34:33;;;;;;;2.35;2.10;;;;;;;;;;5018550;28;89702;-40
2023/08/29 03:36:59;;;;;;;2.70;2.42;;;;;;;;;;5019534;28;89124;-33
2023/08/29 03:39:25;;;;;;;4.43;2.67;;;;;;;;;;5017147;28;90290;-38
2023/08/29 03:41:51;;;;;;;3.47;2.30;;;;;;;;;;5017513;28;89263;-40
2023/08/29 03:44:17;;;;;;;3.15;2.85;;;;;;;;;;5017858;28;89979;-40
2023/08/29 03:46:44;;;;;;;3.38;2.83;;;;;;;;;;5018503;28;88874;-34
2023/08/29 03:49:10;;;;;;;3.90;2.78;;;;;;;;;;5018811;28;89963;-39
2023/08/29 03:51:36;;;;;;;6.80;3.35;;;;;;;;;;5005041;28;89847;-36
2023/08/29 03:54:02;;;;;;;6.18;2.75;;;;;;;;;;5018316;28;89364;-36
2023/08/29 03:56:28;;;;;;;3.17;2.90;;;;;;;;;;5018405;28;89028;-32
2023/08/29 03:58:54;;;;;;;5.40;3.00;;;;;;;;;;5018451;28;89166;-37
2023/08/29 04:01:20;;;;;;;4.05;2.75;;;;;;;;;;5018550;28;89285;-34
2023/08/29 04:03:46;;;;;;;5.88;3.20;;;;;;;;;;5018832;28;89559;-37
2023/08/29 04:06:12;;;;;;;3.92;3.03;;;;;;;;;;5018289;28;87584;-34
2023/08/29 04:08:38;;;;;;;3.28;2.97;;;;;;;;;;5018702;28;90321;-38
2023/08/29 04:11:04;;;;;;;3.40;2.70;;;;;;;;;;5017637;28;91409;-37
2023/08/29 04:13:30;;;;;;;3.35;2.70;;;;;;;;;;5018503;28;90412;-34
2023/08/29 04:16:01;;;;;;;3.38;2.85;;;;;;;;;;5018282;28;88550;-32
2023/08/29 04:18:27;;;;;;;2.97;2.78;;;;;;;;;;5018533;28;90160;-34
2023/08/29 04:20:53;;;;;;;2.90;2.65;;;;;;;;;;5008969;28;89669;-33
2023/08/29 04:23:19;;;;;;;3.08;2.78;;;;;;;;;;5021009;28;89779;-36
2023/08/29 04:25:45;;;;;;;3.45;3.08;;;;;;;;;;5022589;28;90219;-34
2023/08/29 04:28:14;;;;;;;3.47;3.17;;;;;;;;;;5021418;28;90368;-33
2023/08/29 04:30:40;;;;;;;4.05;2.55;;;;;;;;;;5020519;28;90063;-35
2023/08/29 04:33:06;;;;;;;3.83;2.88;;;;;;;;;;5021280;28;89276;-35
2023/08/29 04:35:34;;;;;;;3.92;2.97;;;;;;;;;;5021204;28;90306;-36
2023/08/29 04:38:00;;;;;;;3.38;2.92;;;;;;;;;;5021119;28;89807;-34
2023/08/29 04:40:26;;;;;;;4.03;2.83;;;;;;;;;;5021295;28;89359;-35
2023/08/29 04:42:52;;;;;;;6.32;2.55;;;;;;;;;;5019238;28;89135;-37
2023/08/29 04:45:18;;;;;;;3.58;2.97;;;;;;;;;;5021470;28;88324;-35
2023/08/29 04:47:44;;;;;;;4.28;2.78;;;;;;;;;;5021820;28;90518;-33
2023/08/29 04:50:10;;;;;;;3.45;3.03;;;;;;;;;;5018563;28;89114;-36
2023/08/29 04:52:36;;;;;;;2.85;2.65;;;;;;;;;;5017420;28;89486;-35
2023/08/29 04:55:05;;;;;;;4.38;2.95;;;;;;;;;;5020608;28;89948;-34
2023/08/29 04:57:32;;;;;;;2.97;2.75;;;;;;;;;;5020820;28;91090;-34
2023/08/29 05:00:00;;;;;;;5.63;3.92;;;;;;;;;;5020243;28;90571;-34
2023/08/29 05:02:26;;;;;;;2.20;2.03;;;;;;;;;;5020559;28;90377;-40
2023/08/29 05:04:52;;;;;;;2.58;2.38;;;;;;;;;;5021182;28;88640;-33
2023/08/29 05:07:19;;;;;;;4.68;3.65;;;;;;;;;;5020045;28;90195;-33
2023/08/29 05:09:46;;;;;;;4.63;2.70;;;;;;;;;;5021273;28;89358;-33
2023/08/29 05:12:12;;;;;;;6.35;4.10;;;;;;;;;;5020516;28;88958;-40
2023/08/29 05:14:39;;;;;;;6.90;3.85;;;;;;;;;;5021226;28;88880;-34
2023/08/29 05:17:05;;;;;;;3.28;2.50;;;;;;;;;;5020073;28;90000;-38
2023/08/29 05:19:31;;;;;;;3.50;1.80;;;;;;;;;;5020691;28;89801;-34
2023/08/29 05:21:57;;;;;;;2.95;2.00;;;;;;;;;;5019734;28;89473;-33
2023/08/29 05:24:23;;;;;;;1.75;1.52;;;11.40;99.90;;;;;;5019465;28;89314;-34
2023/08/29 05:26:49;;;;;;;2.83;1.98;;;11.40;99.90;;;;;;5019984;28;91863;-35
2023/08/29 05:29:14;;;;;;;3.63;3.25;;;11.30;99.90;;;;;;5019654;28;89864;-36
2023/08/29 05:31:40;;;;;;;3.42;2.63;;;11.30;99.90;;;;;;5018997;27;88694;-33
2023/08/29 05:34:06;;;;;;;5.70;3.08;;;11.30;99.90;;;;;;5020833;28;88539;-34
2023/08/29 05:36:31;;;;;;;4.95;3.17;;;11.40;99.90;;;;;;5020269;28;90907;-34
2023/08/29 05:38:57;;;;;;;3.80;3.17;;;11.40;99.90;;;;;;5020490;28;89066;-37
2023/08/29 05:41:22;;;;;;;6.13;3.28;;;11.40;99.90;;;;;;5019984;28;89784;-34
2023/08/29 05:43:48;;;;;;;5.43;1.80;;;11.50;99.90;;;;;;5020517;28;89160;-35
2023/08/29 05:46:14;;;;;;;2.80;2.47;;;11.50;99.90;;;;;;5020145;28;89067;-35
2023/08/29 05:48:40;;;;;;;2.05;1.45;;;11.50;99.90;;;;;;5020316;28;90435;-34
2023/08/29 05:51:05;;;;;;;4.68;2.88;;;11.50;99.90;;;;;;5010424;28;90247;-35
2023/08/29 05:53:31;;;;;;;4.47;3.40;;;11.50;99.90;;;;;;5017037;28;89000;-36
2023/08/29 05:55:56;;;;;;;4.20;2.95;;;11.60;99.90;;;;;;5019576;28;90227;-34
2023/08/29 05:58:22;;;;;;;6.30;3.47;;;11.70;99.90;;;;;;5010882;28;89881;-40
2023/08/29 06:00:48;;;;;;;3.63;3.33;;;11.70;99.90;;;;;;5007765;28;89660;-36
2023/08/29 06:03:14;;;;;;;7.43;3.33;;;11.80;99.90;;;;;;5017498;28;87725;-32
2023/08/29 06:05:43;;;;;;;5.50;3.42;;;11.80;99.90;;;;;;5017883;28;90194;-36
2023/08/29 06:08:09;;;;;;;4.70;3.47;;;11.90;99.90;;;;;;5017963;28;89262;-36
2023/08/29 06:10:35;;;;;;;4.53;2.05;;;12.00;99.90;;;;;;5016906;28;89225;-39
2023/08/29 06:13:00;;;;;;;3.38;3.08;;;12.10;99.90;;;;;;5017225;28;89593;-34
2023/08/29 06:15:26;;;;;;;3.20;2.90;;;12.10;99.90;;;;;;5017019;28;90108;-34
2023/08/29 06:17:53;;;;;;;3.85;3.10;;;12.20;99.90;;;;;;5017787;28;88300;-39
2023/08/29 06:20:19;;;;;;;3.45;2.97;;;12.30;99.90;;;;;;5016275;28;89447;-35
2023/08/29 06:22:45;;;;;;;6.35;3.22;;;12.30;99.90;;;;;;5017659;28;88316;-33
2023/08/29 06:25:10;;;;;;;5.10;3.70;;;12.40;99.90;;;;;;5017053;28;90135;-40
2023/08/29 06:27:37;;;;;;;5.20;3.53;;;12.50;99.90;;;;;;5016553;28;89089;-36
2023/08/29 06:30:12;;;;;;;3.58;3.28;;;12.60;99.90;;;;;;5016283;28;89050;-33
2023/08/29 06:32:38;;;;;;;3.33;3.08;;;12.70;99.90;;;;;;5017846;28;89061;-37
2023/08/29 06:35:05;;;;;;;3.25;2.92;;;12.80;99.90;;;;;;5016016;28;90550;-37
2023/08/29 06:37:31;;;;;;;4.75;3.40;;;12.80;99.90;;;;;;5016411;28;90081;-33
2023/08/29 06:39:57;;;;;;;5.55;3.50;;;12.90;99.90;;;;;;5017034;28;90663;-35
2023/08/29 06:42:23;;;;;;;3.05;2.85;;;12.90;99.90;;;;;;5016609;27;90043;-34
2023/08/29 06:44:48;;;;;;;4.10;3.45;;;13.00;99.90;;;;;;5017757;28;90260;-37
2023/08/29 06:47:14;;;;;;;4.28;3.45;;;13.10;99.90;;;;;;5017150;28;90225;-34
2023/08/29 06:49:39;;;;;;;4.82;3.60;;;13.20;99.90;;;;;;5015914;28;89491;-37
2023/08/29 06:52:05;;;;;;;4.30;3.03;;;13.30;99.90;;;;;;5004272;28;90152;-36
2023/08/29 06:54:31;;;;;;;6.05;3.30;;;13.40;99.90;;;;;;5017355;28;90334;-33
2023/08/29 06:56:56;;;;;;;4.68;3.60;;;13.50;99.90;;;;;;5016113;28;89921;-33
2023/08/29 06:59:22;;;;;;;4.18;3.13;;;13.50;99.90;;;;;;5016398;28;90896;-34
2023/08/29 07:01:48;;;;;;;5.57;3.78;;;13.60;99.90;;;;;;5014883;28;90865;-40
2023/08/29 07:04:13;;;;;;;3.55;2.72;;;13.60;99.90;;;;;;5015775;28;90378;-38
2023/08/29 07:06:39;;;;;;;3.40;2.42;;;13.70;99.90;;;;;;5016576;28;89487;-39
2023/08/29 07:09:05;;;;;;;3.45;3.05;;;13.70;99.90;;;;;;5016795;28;89852;-34
2023/08/29 07:11:31;;;;;;;3.75;2.60;;;13.80;99.90;;;;;;5016149;28;88901;-39
2023/08/29 07:13:57;;;;;;;3.15;2.85;;;13.80;99.90;;;;;;5016490;28;89974;-34
2023/08/29 07:16:22;;;;;;;2.50;2.30;;;13.80;99.90;;;;;;5016983;28;88465;-34
2023/08/29 07:18:48;;;;;;;2.45;2.25;;;13.90;99.90;;;;;;5015149;28;89604;-39
2023/08/29 07:21:14;;;;;;;2.95;2.60;;;14.00;99.90;;;;;;5017059;28;88905;-34
2023/08/29 07:23:40;;;;;;;4.20;2.55;;;14.00;99.90;;;;;;5016538;28;90754;-37
2023/08/29 07:26:06;;;;;;;2.10;1.90;;;14.10;99.90;;;;;;5015236;28;90128;-35
2023/08/29 07:28:31;;;;;;;2.40;2.05;;;14.20;99.90;;;;;;5015519;28;91235;-34
2023/08/29 07:30:58;;;;;;;5.00;2.47;;;14.30;99.90;;;;;;5016662;28;88337;-37
2023/08/29 07:33:23;;;;;;;2.42;2.22;;;14.40;99.90;;;;;;5015324;28;90367;-34
2023/08/29 07:35:49;;;;;;;5.20;2.17;;;14.50;99.90;;;;;;5016169;28;89441;-36
2023/08/29 07:38:17;;;;;;;2.35;2.17;;;14.60;99.90;;;;;;5016788;28;89469;-37
2023/08/29 07:40:45;;;;;;;4.85;2.53;;;14.70;99.90;;;;;;5016189;28;89409;-32
2023/08/29 07:43:11;;;;;;;3.55;2.13;;;14.80;99.90;;;;;;5016395;28;89094;-35
2023/08/29 07:45:37;;;;;;;4.25;2.25;;;15.00;99.90;;;;;;5016338;28;89766;-38
2023/08/29 07:48:03;;;;;;;2.15;1.92;;;15.40;99.90;;;;;;5015419;28;88421;-39
2023/08/29 07:50:29;;;;;;;5.20;2.78;;;15.70;99.90;;;;;;5010455;28;89804;-34
2023/08/29 07:52:55;;;;;;;4.55;1.85;;;16.00;99.90;;;;;;5015514;28;89231;-41
2023/08/29 07:55:20;;;;;;;2.17;1.80;;;16.30;99.90;;;;;;5017626;27;89690;-34
2023/08/29 07:57:49;;;;;;;2.25;2.05;;;16.60;99.90;;;;;;5019476;28;89492;-35
2023/08/29 08:00:16;;;;;;;2.05;1.40;;;16.90;99.90;;;;;;5019809;28;90767;-36
2023/08/29 08:02:42;;;;;;;3.92;1.58;;;17.10;99.90;;;;;;5019510;28;89766;-34
2023/08/29 08:05:12;;;;;;;3.13;1.80;;;17.30;99.90;;;;;;5019420;28;88578;-33
2023/08/29 08:07:39;;;;;;;3.58;1.40;;;17.40;99.90;;;;;;5018132;28;90915;-36
2023/08/29 08:10:06;;;;;;;3.80;1.65;;;17.60;99.90;;;;;;5018856;28;89280;-34
2023/08/29 08:12:33;;;;;;;1.90;1.00;;;17.80;99.90;;;;;;5019620;28;89465;-34
2023/08/29 08:14:59;;;;;;;1.15;0.85;;;17.80;99.90;;;;;;5018977;28;90620;-36
2023/08/29 08:17:24;;;;;;;2.92;0.90;;;18.00;99.90;;;;;;5018121;28;89451;-34
2023/08/29 08:19:50;;;;;;;2.28;1.10;;;18.10;99.90;;;;;;5019359;28;88420;-37
2023/08/29 08:22:16;;;;;;;1.08;0.98;;;18.20;99.90;;;;;;5018514;28;90604;-37
2023/08/29 08:24:42;;;;;;;4.13;0.98;;;18.40;99.90;;;;;;5018581;28;90158;-38
2023/08/29 08:27:08;;;;;;;2.70;1.02;;;18.40;99.90;;;;;;5052505;22;89924;-35
2023/08/29 08:29:34;;;;;;;1.25;1.15;;;18.40;99.90;;;;;;5019595;28;88594;-34
2023/08/29 08:32:00;;;;;;;1.95;0.93;;;18.40;99.90;;;;;;5008347;28;90407;-37
2023/08/29 08:34:26;;;;;;;1.65;0.98;;;18.30;99.90;;;;;;5017925;28;90451;-35
2023/08/29 08:36:51;;;;;;;0.95;0.93;;;18.30;99.90;;;;;;5018966;28;89236;-38
2023/08/29 08:39:17;;;;;;;0.98;0.98;;;18.30;99.90;;;;;;5018813;28;90440;-34
2023/08/29 08:41:43;;;;;;;1.85;1.20;;;18.30;99.90;;;;;;5017985;28;90431;-35
2023/08/29 08:44:11;;;;;;;1.40;1.20;;;18.40;99.90;;;;;;5019085;28;89937;-37
2023/08/29 08:46:37;;;;;;;1.90;1.23;;;18.40;99.90;;;;;;5008599;28;90080;-36
2023/08/29 08:49:03;;;;;;;2.42;1.20;;;18.20;99.90;;;;;;5018351;28;90540;-37
2023/08/29 08:51:30;;;;;;;1.30;1.10;;;18.30;99.90;;;;;;5006257;28;89936;-33
2023/08/29 08:53:57;;;;;;;1.63;1.05;;;18.40;99.90;;;;;;5005685;28;89645;-35
2023/08/29 08:56:23;;;;;;;1.05;0.90;;;18.50;99.90;;;;;;5017788;28;88930;-34
2023/08/29 08:58:49;;;;;;;1.15;1.00;;;18.50;99.90;;;;;;5019768;28;89517;-36
2023/08/29 09:01:15;;;;;;;4.93;1.00;;;18.50;99.90;;;;;;5017601;28;90471;-34
2023/08/29 09:03:42;;;;;;;3.80;1.38;;;18.50;99.90;;;;;;5017371;28;90182;-39
2023/08/29 09:06:09;;;;;;;1.73;1.10;;;18.40;99.90;;;;;;5017667;27;89933;-34
2023/08/29 09:08:35;;;;;;;1.27;1.00;;;18.50;99.90;;;;;;5017950;28;90132;-33
2023/08/29 09:11:01;;;;;;;2.17;0.90;;;18.70;99.90;;;;;;5017840;28;90737;-39
2023/08/29 09:13:27;;;;;;;1.92;1.17;;;18.60;99.90;;;;;;5018611;28;89095;-34
2023/08/29 09:15:53;;;;;;;1.10;1.00;;;18.90;99.90;;;;;;5018203;28;89375;-34
2023/08/29 09:18:26;;;;;;;0.93;0.85;;;18.90;99.90;;;;;;5018605;28;90193;-36
2023/08/29 09:20:54;;;;;;;4.15;1.17;;;19.10;99.90;;;;;;5010314;28;90018;-38
2023/08/29 09:23:21;;;;;;;0.75;0.75;;;19.20;99.90;;;;;;5018117;28;89704;-34
2023/08/29 09:25:58;;;;;;;0.70;0.70;;;19.20;99.90;;;;;;5018268;28;89077;-35
2023/08/29 09:28:28;;;;;;;3.15;1.08;;;19.20;99.90;;;;;;5018143;28;90439;-33
2023/08/29 09:30:55;;;;;;;0.98;0.70;;;19.30;99.90;;;;;;5019326;28;91179;-36
2023/08/29 09:33:21;;;;;;;1.83;1.20;;;19.40;99.90;;;;;;5017641;28;90180;-37
2023/08/29 09:35:49;;;;;;;1.55;1.23;;;19.40;99.90;;;;;;5017208;28;89484;-39
2023/08/29 09:38:17;;;;;;;2.97;1.07;;;19.20;99.90;;;;;;5018595;28;88977;-37
2023/08/29 09:40:47;;;;;;;0.95;0.88;;;19.40;99.90;;;;;;5017632;28;89847;-33
2023/08/29 09:43:15;;;;;;;1.13;1.10;;;19.50;99.90;;;;;;5018566;28;89054;-34
2023/08/29 09:45:41;;;;;;;1.00;1.00;;;19.40;99.90;;;;;;5018123;28;90732;-33
2023/08/29 09:48:08;;;;;;;1.15;0.98;;;19.50;99.90;;;;;;5016622;28;90132;-38
2023/08/29 09:50:35;;;;;;;0.55;0.55;;;19.50;99.90;;;;;;5012533;28;89996;-35
2023/08/29 09:53:02;;;;;;;1.95;1.10;;;19.60;99.90;;;;;;5010816;28;91898;-33
2023/08/29 09:55:33;;;;;;;1.02;0.80;;;19.70;99.90;;;;;;5016872;28;90512;-33
2023/08/29 09:58:01;;;;;;;2.20;0.82;;;19.70;99.90;;;;;;4999265;28;88919;-37
2023/08/29 10:00:27;;;;;;;1.80;1.10;;;19.70;99.90;;;;;;5017354;28;89984;-37
2023/08/29 10:02:56;;;;;;;2.47;0.80;;;19.90;99.90;;;;;;5016544;28;89640;-37
2023/08/29 10:05:26;;;;;;;0.82;0.82;;;19.90;99.90;;;;;;5017931;28;89887;-37
2023/08/29 10:07:57;;;;;;;1.88;0.70;;;20.00;99.90;;;;;;5017541;28;87962;-33
2023/08/29 10:10:23;;;;;;;1.98;1.08;;;19.90;99.90;;;;;;5017574;28;90437;-33
2023/08/29 10:12:49;;;;;;;4.30;1.00;;;19.80;99.90;;;;;;5017873;28;90246;-35
2023/08/29 10:15:17;;;;;;;1.95;0.98;;;19.60;99.90;;;;;;5017167;28;89948;-35
2023/08/29 10:17:43;;;;;;;3.13;0.93;;;19.80;99.90;;;;;;5016227;28;89967;-38
2023/08/29 10:20:12;;;;;;;1.42;0.80;;;19.80;99.90;;;;;;5017707;28;90849;-35
2023/08/29 10:22:40;;;;;;;5.15;1.48;;;20.00;99.90;;;;;;5017403;28;89730;-35
2023/08/29 10:25:06;;;;;;;1.23;1.00;;;20.10;99.90;;;;;;5017285;28;89885;-37
2023/08/29 10:27:33;;;;;;;3.72;1.05;;;19.80;99.90;;;;;;5016524;28;89439;-36
2023/08/29 10:30:01;;;;;;;3.10;1.25;;;19.60;99.90;;;;;;5017809;28;90321;-36
2023/08/29 10:32:28;;;;;;;2.87;1.00;;;20.00;99.90;;;;;;5016705;28;90269;-34
2023/08/29 10:34:53;;;;;;;1.20;1.10;;;20.10;99.90;;;;;;5017369;28;90141;-34
2023/08/29 10:37:20;;;;;;;1.90;1.10;;;20.10;99.90;;;;;;5015767;28;89403;-34
2023/08/29 10:39:47;;;;;;;0.82;0.82;;;20.10;99.90;;;;;;5016551;28;90631;-37
2023/08/29 10:42:16;;;;;;;1.95;1.13;;;20.20;99.90;;;;;;5014547;28;90591;-38
2023/08/29 10:44:46;;;;;;;2.35;1.20;;;20.20;99.90;;;;;;5016818;28;90367;-38
2023/08/29 10:47:31;;;;;;;1.75;1.05;;;20.00;99.90;;;;;;5015918;28;90189;-34
2023/08/29 10:50:02;;;;;;;0.80;0.80;;;20.10;99.90;;;;;;5012626;28;90168;-36
2023/08/29 10:52:41;;;;;;;3.70;1.50;;;20.20;99.90;;;;;;5004288;28;89124;-38
2023/08/29 10:55:19;;;;;;;1.65;1.15;;;20.40;99.90;;;;;;5016653;28;89916;-37
2023/08/29 10:57:44;;;;;;;1.55;0.80;;;20.60;99.90;;;;;;5017614;28;89622;-36
2023/08/29 11:00:34;;;;;;;3.53;1.10;;;20.60;99.90;;;;;;5015263;28;90198;-35
2023/08/29 11:03:00;;;;;;;1.13;1.13;;;20.60;99.90;;;;;;5003813;28;88973;-35
2023/08/29 11:05:27;;;;;;;1.25;1.15;;;20.70;99.90;;;;;;5015885;28;89613;-36
2023/08/29 11:07:53;;;;;;;1.77;1.40;;;20.70;99.90;;;;;;5015727;28;89281;-35
2023/08/29 11:10:23;;;;;;;3.50;0.90;;;20.60;99.90;;;;;;5017217;28;90264;-35
2023/08/29 11:13:09;;;;;;;1.58;0.90;;;20.50;99.90;;;;;;5015748;28;89474;-34
2023/08/29 11:15:49;;;;;;;1.58;0.70;;;20.70;99.90;;;;;;5016124;28;88933;-35
2023/08/29 11:18:21;;;;;;;1.33;1.23;;;20.70;99.90;;;;;;5005243;28;88741;-34
2023/08/29 11:20:47;;;;;;;0.68;0.68;;;20.70;99.90;;;;;;5016504;28;90101;-36
2023/08/29 11:23:13;;;;;;;1.20;1.10;;;20.60;99.90;;;;;;5015497;28;89279;-34
2023/08/29 11:25:39;;;;;;;1.90;1.48;;;20.70;99.90;;;;;;5016235;28;89478;-39
2023/08/29 11:28:05;;;;;;;1.23;0.90;;;20.60;99.90;;;;;;5016254;28;89223;-34
2023/08/29 11:30:33;;;;;;;1.15;1.08;;;20.60;99.90;;;;;;5013939;28;90545;-36
2023/08/29 11:32:58;;;;;;;1.30;1.20;;;20.50;99.90;;;;;;5015786;28;90320;-37
2023/08/29 11:35:27;;;;;;;2.42;1.17;;;20.40;99.90;;;;;;5015767;28;90834;-33
2023/08/29 11:37:53;;;;;;;1.00;0.88;;;20.30;99.90;;;;;;5015153;28;88503;-38
2023/08/29 11:40:22;;;;;;;0.98;0.88;;;20.20;99.90;;;;;;5014827;28;90233;-36
2023/08/29 11:42:48;;;;;;;1.65;1.02;;;20.20;99.90;;;;;;5016149;28;89798;-35
2023/08/29 11:45:16;;;;;;;1.52;1.13;;;20.30;99.90;;;;;;5015230;28;89554;-36
2023/08/29 11:47:43;;;;;;;0.73;0.73;;;20.20;99.90;;;;;;5017135;28;87841;-36
2023/08/29 11:50:10;;;;;;;1.95;0.98;;;20.20;99.90;;;;;;5013194;28;90827;-35
2023/08/29 11:52:36;;;;;;;0.77;0.77;;;20.10;99.90;;;;;;5004210;28;89253;-37
2023/08/29 11:55:04;;;;;;;1.25;0.75;;;20.10;99.90;;;;;;5015535;28;90372;-37
2023/08/29 11:57:30;;;;;;;0.88;0.80;;;20.10;99.90;;;;;;5015289;28;88903;-34
2023/08/29 11:59:57;;;;;;;1.67;1.27;;;20.10;99.90;;;;;;5015061;28;90445;-38
2023/08/29 12:02:23;;;;;;;1.20;0.68;;;20.10;99.90;;;;;;5015909;28;90076;-39
2023/08/29 12:04:57;;;;;;;0.80;0.80;;;20.10;99.90;;;;;;5015771;28;89757;-35
2023/08/29 12:07:23;;;;;;;0.70;0.70;;;20.10;99.90;;;;;;5015242;28;89377;-35
2023/08/29 12:09:52;;;;;;;1.35;1.10;;;20.10;99.90;;;;;;5015731;28;90703;-35
2023/08/29 12:12:30;;;;;;;0.95;0.88;;;20.10;99.90;;;;;;5014672;28;90060;-32
2023/08/29 12:14:56;;;;;;;1.38;1.00;;;20.10;99.90;;;;;;5015547;28;89621;-37
2023/08/29 12:17:23;;;;;;;2.22;0.93;;;20.00;99.90;;;;;;5015220;28;90375;-39
2023/08/29 12:19:49;;;;;;;2.20;1.10;;;20.10;99.90;;;;;;5016073;28;90028;-35
2023/08/29 12:22:19;;;;;;;0.60;0.60;;;20.10;99.90;;;;;;5014030;28;90837;-35
2023/08/29 12:24:54;;;;;;;0.80;0.80;;;20.10;99.90;;;;;;5015362;28;89550;-32
2023/08/29 12:27:20;;;;;;;3.30;1.27;;;20.10;99.90;;;;;;5002906;28;87947;-36
2023/08/29 12:29:46;;;;;;;3.80;1.75;;;20.10;99.90;;;;;;5015321;28;90459;-33
2023/08/29 12:32:13;;;;;;;2.75;1.60;;;20.00;99.90;;;;;;5014973;28;90367;-32
2023/08/29 12:34:41;;;;;;;1.92;0.80;;;20.10;99.90;;;;;;5014495;28;90131;-33
2023/08/29 12:37:06;;;;;;;0.73;0.70;;;20.10;99.90;;;;;;5015220;28;88830;-36
2023/08/29 12:39:32;;;;;;;1.73;0.95;;;20.10;99.90;;;;;;5015289;28;91673;-35
2023/08/29 12:41:58;;;;;;;1.00;1.00;;;20.00;99.90;;;;;;5016322;28;89350;-35
2023/08/29 12:44:23;;;;;;;0.98;0.95;;;20.10;99.90;;;;;;5017543;28;90449;-37
2023/08/29 12:46:49;;;;;;;1.45;1.15;;;20.00;99.90;;;;;;5018790;28;88049;-36
2023/08/29 12:49:14;;;;;;;4.38;1.20;;;19.90;99.90;;;;;;5018296;28;90224;-37
2023/08/29 12:51:40;;;;;;;1.45;1.35;;;19.90;99.90;;;;;;5004316;28;90434;-35
2023/08/29 12:54:06;;;;;;;2.10;1.52;;;20.00;99.90;;;;;;5019144;28;89863;-35
2023/08/29 12:56:31;;;;;;;4.82;1.45;;;20.00;99.90;;;;;;5018572;28;88021;-34
2023/08/29 12:58:57;;;;;;;1.27;1.17;;;20.10;99.90;;;;;;5018300;28;90359;-36
2023/08/29 13:01:27;;;;;;;2.00;1.60;;;20.00;99.90;;;;;;5015244;28;89488;-36
2023/08/29 13:03:56;;;;;;;1.20;1.13;;;19.90;99.90;;;;;;5018216;28;89634;-34
2023/08/29 13:06:22;;;;;;;3.28;1.92;;;19.80;99.90;;;;;;5016804;28;88126;-37
2023/08/29 13:08:48;;;;;;;2.75;2.50;;;19.90;99.90;;;;;;5018021;28;89846;-39
2023/08/29 13:11:13;;;;;;;2.83;2.17;;;20.00;99.90;;;;;;5017389;28;90392;-36
2023/08/29 13:13:39;;;;;;;3.28;2.38;;;20.00;99.90;;;;;;5011645;28;90961;-35
2023/08/29 13:16:05;;;;;;;3.47;1.80;;;19.90;99.90;;;;;;5018594;28;89388;-33
2023/08/29 13:18:30;;;;;;;6.85;2.50;;;19.80;99.90;;;;;;5017329;28;90098;-37
2023/08/29 13:20:56;;;;;;;4.93;2.92;;;19.90;99.90;;;;;;5018153;28;90402;-38
2023/08/29 13:23:22;;;;;;;2.22;1.90;;;19.70;99.90;;;;;;5017864;28;89594;-37
2023/08/29 13:25:47;;;;;;;2.20;2.00;;;19.70;99.90;;;;;;5018001;28;88976;-37
2023/08/29 13:28:14;;;;;;;3.53;2.20;;;19.60;99.90;;;;;;5016648;28;90389;-35